Time;durP1;ratioP1;P1;durP2;ratioP2;P2;SDS_P1;SDS_P2;PMS_P1;PMS_P2;Temp;Humidity;BMP_temperature;BMP_pressure;BME280_temperature;BME280_humidity;BME280_pressure;Samples;Min_cycle;Max_cycle;Signal;HPM_P1;HPM_P2
2023/12/27 00:00:28;;;;;;;35.08;20.92;;;5.60;99.90;;;;;;5112024;28;20048;-71
2023/12/27 00:02:57;;;;;;;34.90;19.77;;;5.60;99.90;;;;;;5098599;28;20036;-71
2023/12/27 00:05:23;;;;;;;36.45;21.02;;;5.50;99.90;;;;;;5098607;28;20077;-71
2023/12/27 00:07:48;;;;;;;37.20;21.63;;;5.50;99.90;;;;;;5094841;28;20107;-71
2023/12/27 00:10:14;;;;;;;36.20;20.23;;;5.50;99.90;;;;;;5102768;28;20031;-71
2023/12/27 00:12:40;;;;;;;39.00;20.95;;;5.40;99.90;;;;;;5110735;28;20035;-70
2023/12/27 00:15:06;;;;;;;38.25;21.42;;;5.40;99.90;;;;;;5115373;28;20051;-71
2023/12/27 00:17:31;;;;;;;33.00;20.27;;;5.40;99.90;;;;;;5115138;28;20376;-70
2023/12/27 00:19:57;;;;;;;37.22;21.48;;;5.30;99.90;;;;;;5115422;28;20023;-70
2023/12/27 00:22:23;;;;;;;43.10;21.30;;;5.30;99.90;;;;;;5112476;28;20076;-71
2023/12/27 00:24:49;;;;;;;36.70;20.25;;;5.30;99.90;;;;;;5114877;28;20032;-71
2023/12/27 00:27:14;;;;;;;38.17;21.60;;;5.30;99.90;;;;;;5113301;28;20041;-70
2023/12/27 00:29:40;;;;;;;41.33;21.35;;;5.30;99.90;;;;;;5114722;28;20062;-71
2023/12/27 00:32:09;;;;;;;37.88;22.65;;;5.20;99.90;;;;;;5112765;28;20028;-71
2023/12/27 00:34:35;;;;;;;40.80;21.48;;;5.20;99.90;;;;;;5112640;28;20027;-71
2023/12/27 00:37:01;;;;;;;39.35;22.35;;;5.20;99.90;;;;;;5111048;28;20118;-71
2023/12/27 00:39:27;;;;;;;41.30;21.80;;;5.20;99.90;;;;;;5114613;28;20472;-70
2023/12/27 00:41:52;;;;;;;38.83;21.20;;;5.20;99.90;;;;;;5113562;28;20030;-71
2023/12/27 00:44:19;;;;;;;36.15;22.02;;;5.10;99.90;;;;;;5112925;28;20049;-71
2023/12/27 00:46:44;;;;;;;35.97;21.75;;;5.10;99.90;;;;;;5114703;28;20027;-71
2023/12/27 00:49:10;;;;;;;39.05;21.35;;;5.20;99.90;;;;;;5110379;28;20096;-70
2023/12/27 00:51:35;;;;;;;37.10;20.35;;;5.10;99.90;;;;;;5114197;28;20022;-70
2023/12/27 00:54:01;;;;;;;36.55;21.52;;;5.10;99.90;;;;;;5094985;28;20055;-71
2023/12/27 00:56:27;;;;;;;33.78;21.83;;;5.10;99.90;;;;;;5114437;28;20464;-71
2023/12/27 00:58:52;;;;;;;34.95;20.30;;;5.10;99.90;;;;;;5112726;28;20448;-71
2023/12/27 01:01:18;;;;;;;37.17;20.85;;;5.10;99.90;;;;;;5114058;28;20496;-71
2023/12/27 01:03:43;;;;;;;35.63;20.95;;;5.10;99.90;;;;;;5114335;28;20052;-71
2023/12/27 01:06:10;;;;;;;39.83;21.10;;;5.10;99.90;;;;;;5106640;28;20063;-71
2023/12/27 01:08:36;;;;;;;32.40;19.67;;;5.10;99.90;;;;;;5111519;28;20099;-71
2023/12/27 01:11:02;;;;;;;40.08;22.08;;;5.20;99.90;;;;;;5095976;28;20432;-71
2023/12/27 01:13:28;;;;;;;38.40;20.30;;;5.20;99.90;;;;;;5110658;28;20028;-71
2023/12/27 01:15:54;;;;;;;32.95;19.95;;;5.20;99.90;;;;;;5114238;28;20054;-71
2023/12/27 01:18:20;;;;;;;34.75;19.73;;;5.30;99.90;;;;;;5110829;28;20047;-71
2023/12/27 01:20:46;;;;;;;37.53;19.60;;;5.30;99.90;;;;;;5112359;28;20046;-71
2023/12/27 01:23:12;;;;;;;31.15;17.73;;;5.40;99.90;;;;;;5111106;28;20820;-71
2023/12/27 01:25:38;;;;;;;32.08;18.30;;;5.40;99.90;;;;;;5113603;28;20038;-71
2023/12/27 01:28:03;;;;;;;30.08;17.35;;;5.40;99.90;;;;;;5113714;28;20031;-71
2023/12/27 01:30:30;;;;;;;33.00;17.35;;;5.30;99.90;;;;;;5112788;28;20055;-71
2023/12/27 01:32:55;;;;;;;31.40;17.40;;;5.30;99.90;;;;;;5112374;28;20057;-71
2023/12/27 01:35:21;;;;;;;33.17;17.85;;;5.30;99.90;;;;;;5111013;28;20024;-71
2023/12/27 01:37:47;;;;;;;34.88;17.85;;;5.30;99.90;;;;;;5113482;28;20034;-71
2023/12/27 01:40:12;;;;;;;31.55;18.00;;;5.30;99.90;;;;;;5113590;28;20024;-71
2023/12/27 01:42:39;;;;;;;30.20;17.95;;;5.30;99.90;;;;;;5111632;28;20054;-71
2023/12/27 01:45:05;;;;;;;33.17;17.58;;;5.30;99.90;;;;;;5110159;28;20032;-71
2023/12/27 01:47:33;;;;;;;32.60;18.95;;;5.30;99.90;;;;;;5113668;28;20043;-71
2023/12/27 01:49:59;;;;;;;35.40;19.35;;;5.30;99.90;;;;;;5113371;28;20062;-71
2023/12/27 01:52:25;;;;;;;36.35;20.45;;;5.30;99.90;;;;;;5109865;28;20016;-71
2023/12/27 01:54:52;;;;;;;37.75;20.58;;;5.30;99.90;;;;;;5113284;28;20030;-71
2023/12/27 01:57:18;;;;;;;32.40;19.85;;;5.30;99.90;;;;;;5111459;28;20185;-71
2023/12/27 01:59:45;;;;;;;36.30;22.00;;;5.30;99.90;;;;;;5109263;28;20063;-71
2023/12/27 02:02:11;;;;;;;34.70;22.02;;;5.30;99.90;;;;;;5112950;28;20043;-71
2023/12/27 02:04:37;;;;;;;36.33;22.10;;;5.30;99.90;;;;;;5113050;28;20064;-71
2023/12/27 02:07:03;;;;;;;37.63;22.60;;;5.30;99.90;;;;;;5112825;28;20074;-71
2023/12/27 02:09:29;;;;;;;37.05;23.88;;;5.30;99.90;;;;;;5111451;28;20063;-71
2023/12/27 02:11:54;;;;;;;40.33;23.85;;;5.30;99.90;;;;;;5112727;28;20078;-71
2023/12/27 02:14:20;;;;;;;40.40;24.92;;;5.40;99.90;;;;;;5111517;28;20111;-71
2023/12/27 02:16:46;;;;;;;43.67;25.00;;;5.30;99.90;;;;;;5112696;28;20114;-71
2023/12/27 02:19:20;;;;;;;44.15;25.30;;;5.30;99.90;;;;;;5112903;28;20024;-71
2023/12/27 02:21:46;;;;;;;45.45;26.10;;;5.30;99.90;;;;;;5111165;28;20020;-71
2023/12/27 02:24:15;;;;;;;40.25;25.67;;;5.30;99.90;;;;;;5107377;28;20039;-71
2023/12/27 02:26:41;;;;;;;45.47;27.17;;;5.30;99.90;;;;;;5112736;28;20020;-71
2023/12/27 02:29:06;;;;;;;40.50;25.80;;;5.40;99.90;;;;;;5109733;28;20031;-71
2023/12/27 02:31:32;;;;;;;40.45;26.02;;;5.40;99.90;;;;;;5111690;28;20015;-71
2023/12/27 02:33:58;;;;;;;44.05;26.52;;;5.40;99.90;;;;;;5110684;28;20024;-71
2023/12/27 02:36:24;;;;;;;40.28;26.08;;;5.40;99.90;;;;;;5112781;28;20047;-71
2023/12/27 02:38:50;;;;;;;45.60;27.65;;;5.50;99.90;;;;;;5111261;28;20457;-70
2023/12/27 02:41:15;;;;;;;41.22;26.25;;;5.50;99.90;;;;;;5112263;28;20023;-71
2023/12/27 02:43:41;;;;;;;40.40;26.30;;;5.50;99.90;;;;;;5108144;28;20050;-70
2023/12/27 02:46:06;;;;;;;41.85;25.98;;;5.50;99.90;;;;;;5111321;28;20047;-71
2023/12/27 02:48:32;;;;;;;41.85;26.45;;;5.50;99.90;;;;;;5112432;28;20428;-71
2023/12/27 02:50:57;;;;;;;42.58;26.27;;;5.60;99.90;;;;;;5112180;28;20513;-70
2023/12/27 02:53:23;;;;;;;38.67;26.30;;;5.60;99.90;;;;;;5112150;28;20027;-71
2023/12/27 02:55:49;;;;;;;36.50;24.38;;;5.60;99.90;;;;;;5112183;28;20039;-71
2023/12/27 02:58:14;;;;;;;40.58;25.73;;;5.70;99.90;;;;;;5110003;28;20024;-71
2023/12/27 03:00:41;;;;;;;38.08;25.23;;;5.70;99.90;;;;;;5108640;28;20071;-70
2023/12/27 03:03:07;;;;;;;40.03;24.25;;;5.80;99.90;;;;;;5112358;28;20081;-70
2023/12/27 03:05:33;;;;;;;39.33;24.65;;;5.70;99.90;;;;;;5112378;28;20023;-71
2023/12/27 03:07:58;;;;;;;39.00;24.25;;;5.80;99.90;;;;;;5112092;28;20030;-70
2023/12/27 03:10:24;;;;;;;37.25;24.15;;;5.80;99.90;;;;;;5111303;28;20062;-71
2023/12/27 03:12:49;;;;;;;41.88;24.80;;;5.80;99.90;;;;;;5112331;28;20031;-71
2023/12/27 03:15:15;;;;;;;40.05;24.20;;;5.80;99.90;;;;;;5109378;28;20028;-71
2023/12/27 03:17:40;;;;;;;36.05;23.65;;;5.80;99.90;;;;;;5107866;28;20024;-71
2023/12/27 03:20:07;;;;;;;34.40;21.65;;;5.90;99.90;;;;;;5108739;28;20032;-71
2023/12/27 03:22:32;;;;;;;34.35;21.55;;;5.90;99.90;;;;;;5107255;28;20020;-71
2023/12/27 03:24:58;;;;;;;34.55;21.02;;;5.90;99.90;;;;;;5111847;28;20491;-72
2023/12/27 03:27:23;;;;;;;37.10;22.60;;;5.90;99.90;;;;;;5090247;28;20023;-71
2023/12/27 03:29:49;;;;;;;33.53;21.77;;;5.90;99.90;;;;;;5111397;28;20039;-71
2023/12/27 03:32:14;;;;;;;33.97;20.40;;;5.90;99.90;;;;;;5112072;28;20065;-71
2023/12/27 03:34:40;;;;;;;35.33;19.45;;;5.90;99.90;;;;;;5108446;28;20028;-71
2023/12/27 03:37:06;;;;;;;33.13;20.40;;;6.00;99.90;;;;;;5111826;28;20027;-71
2023/12/27 03:39:31;;;;;;;34.20;20.52;;;6.00;99.90;;;;;;5112029;28;20015;-71
2023/12/27 03:41:57;;;;;;;32.90;19.63;;;6.00;99.90;;;;;;5110455;28;20426;-71
2023/12/27 03:44:22;;;;;;;34.97;19.10;;;6.00;99.90;;;;;;5113436;28;20035;-71
2023/12/27 03:46:48;;;;;;;30.95;19.83;;;6.00;99.90;;;;;;5115344;28;20393;-71
2023/12/27 03:49:13;;;;;;;30.30;19.50;;;6.00;99.90;;;;;;5114104;28;20511;-70
2023/12/27 03:51:39;;;;;;;37.45;20.23;;;6.10;99.90;;;;;;5115366;28;20020;-71
2023/12/27 03:54:04;;;;;;;30.95;19.23;;;6.10;99.90;;;;;;5112247;28;20034;-71
2023/12/27 03:56:30;;;;;;;30.98;20.48;;;6.00;99.90;;;;;;5115140;28;20099;-71
2023/12/27 03:58:55;;;;;;;30.25;19.92;;;6.10;99.90;;;;;;5114123;28;20028;-71
2023/12/27 04:01:21;;;;;;;32.67;19.63;;;6.10;99.90;;;;;;5108950;28;20528;-71
2023/12/27 04:03:48;;;;;;;32.97;19.48;;;6.10;99.90;;;;;;5115240;28;20384;-71
2023/12/27 04:06:20;;;;;;;32.58;19.42;;;6.20;99.90;;;;;;5115273;28;20448;-71
2023/12/27 04:08:46;;;;;;;34.13;19.13;;;6.10;99.90;;;;;;5112675;28;20080;-71
2023/12/27 04:11:12;;;;;;;35.00;19.92;;;6.10;99.90;;;;;;5113982;28;20059;-71
2023/12/27 04:13:37;;;;;;;33.70;19.02;;;6.10;99.90;;;;;;5114799;28;20128;-71
2023/12/27 04:16:03;;;;;;;32.22;19.55;;;6.10;99.90;;;;;;5115209;28;20024;-71
2023/12/27 04:18:29;;;;;;;33.35;19.38;;;6.20;99.90;;;;;;5112874;28;20036;-71
2023/12/27 04:20:54;;;;;;;33.50;19.25;;;6.20;99.90;;;;;;5109011;28;20040;-71
2023/12/27 04:23:20;;;;;;;36.55;19.98;;;6.20;99.90;;;;;;5112958;28;20126;-71
2023/12/27 04:25:46;;;;;;;27.98;18.42;;;6.20;99.90;;;;;;5115354;28;20019;-71
2023/12/27 04:28:11;;;;;;;32.72;19.23;;;6.20;99.90;;;;;;5096486;28;20024;-71
2023/12/27 04:30:37;;;;;;;41.00;20.40;;;6.30;99.90;;;;;;5094898;28;20381;-70
2023/12/27 04:33:02;;;;;;;41.97;21.10;;;6.30;99.90;;;;;;5094990;28;20450;-71
2023/12/27 04:35:28;;;;;;;37.30;19.10;;;6.40;99.90;;;;;;5103984;28;20468;-71
2023/12/27 04:37:53;;;;;;;31.90;18.20;;;6.40;99.90;;;;;;5115200;28;20429;-71
2023/12/27 04:40:19;;;;;;;32.85;17.35;;;6.40;99.90;;;;;;5113998;28;20022;-71
2023/12/27 04:42:45;;;;;;;99.88;25.10;;;6.40;99.90;;;;;;5105831;28;20020;-71
2023/12/27 04:45:10;;;;;;;121.40;26.05;;;6.40;99.90;;;;;;5094828;28;20048;-71
2023/12/27 04:47:36;;;;;;;31.85;16.35;;;6.50;99.90;;;;;;5106307;28;20051;-71
2023/12/27 04:50:02;;;;;;;40.13;18.48;;;6.50;99.90;;;;;;5114454;28;20038;-71
2023/12/27 04:52:27;;;;;;;37.35;18.13;;;6.60;99.90;;;;;;5114540;28;20020;-70
2023/12/27 04:54:55;;;;;;;46.10;17.85;;;6.60;99.90;;;;;;5114831;28;20024;-71
2023/12/27 04:57:20;;;;;;;34.53;18.13;;;6.70;99.90;;;;;;5111578;28;20087;-71
2023/12/27 04:59:46;;;;;;;32.25;17.73;;;6.70;99.90;;;;;;5098005;28;20038;-71
2023/12/27 05:02:11;;;;;;;77.63;21.77;;;6.70;99.90;;;;;;5104476;28;20096;-71
2023/12/27 05:04:37;;;;;;;137.10;29.00;;;6.70;99.90;;;;;;5114542;28;20510;-71
2023/12/27 05:07:02;;;;;;;102.07;24.13;;;6.70;99.90;;;;;;5114760;28;20042;-71
2023/12/27 05:09:28;;;;;;;33.25;19.40;;;6.70;99.90;;;;;;5114399;28;20033;-71
2023/12/27 05:11:54;;;;;;;38.60;18.38;;;6.70;99.90;;;;;;5113436;28;20358;-71
2023/12/27 05:14:19;;;;;;;63.47;19.98;;;6.70;99.90;;;;;;5114664;28;20028;-71
2023/12/27 05:16:48;;;;;;;66.20;20.08;;;6.70;99.90;;;;;;5112837;28;20039;-71
2023/12/27 05:19:13;;;;;;;33.28;16.73;;;6.70;99.90;;;;;;5114396;28;20389;-71
2023/12/27 05:21:39;;;;;;;51.55;17.30;;;6.70;99.90;;;;;;5114761;28;20027;-71
2023/12/27 05:24:05;;;;;;;29.05;15.80;;;6.70;99.90;;;;;;5098683;28;20427;-71
2023/12/27 05:26:30;;;;;;;29.27;15.57;;;6.70;99.90;;;;;;5093482;28;20038;-71
2023/12/27 05:28:56;;;;;;;31.42;15.65;;;6.70;99.90;;;;;;5094058;28;20077;-71
2023/12/27 05:31:21;;;;;;;32.17;13.75;;;6.70;99.90;;;;;;5093917;28;20122;-71
2023/12/27 05:33:47;;;;;;;37.75;14.77;;;6.70;99.90;;;;;;5114227;28;20031;-71
2023/12/27 05:36:13;;;;;;;34.67;14.70;;;6.70;99.90;;;;;;5109076;28;20028;-71
2023/12/27 05:38:38;;;;;;;31.08;14.27;;;6.70;99.90;;;;;;5094006;28;20098;-71
2023/12/27 05:41:04;;;;;;;27.45;14.18;;;6.70;99.90;;;;;;5093365;28;20111;-71
2023/12/27 05:43:29;;;;;;;33.45;13.18;;;6.70;99.90;;;;;;5093527;28;20039;-71
2023/12/27 05:45:55;;;;;;;31.70;13.88;;;6.80;99.90;;;;;;5093262;28;20466;-71
2023/12/27 05:48:20;;;;;;;29.17;13.00;;;6.80;99.90;;;;;;5098110;28;20028;-71
2023/12/27 05:50:46;;;;;;;30.10;13.18;;;6.80;99.90;;;;;;5114037;28;20035;-71
2023/12/27 05:53:11;;;;;;;86.03;18.13;;;6.80;99.90;;;;;;5113864;28;20120;-71
2023/12/27 05:55:37;;;;;;;57.80;16.08;;;6.80;99.90;;;;;;5113165;28;20024;-71
2023/12/27 05:58:03;;;;;;;27.83;12.85;;;6.80;99.90;;;;;;5112984;28;20028;-71
2023/12/27 06:00:28;;;;;;;26.27;12.77;;;6.90;99.90;;;;;;5113554;28;20043;-71
2023/12/27 06:02:54;;;;;;;27.27;12.80;;;6.80;99.90;;;;;;5111577;28;20092;-71
2023/12/27 06:05:22;;;;;;;30.88;12.65;;;6.80;99.90;;;;;;5094671;28;20031;-71
2023/12/27 06:07:47;;;;;;;28.50;11.93;;;6.90;99.90;;;;;;5112667;28;20027;-71
2023/12/27 06:10:13;;;;;;;31.75;12.38;;;6.90;99.90;;;;;;5097731;28;20522;-71
2023/12/27 06:12:39;;;;;;;32.92;12.70;;;6.90;99.90;;;;;;5094743;28;20720;-71
2023/12/27 06:15:05;;;;;;;29.98;12.38;;;6.90;99.90;;;;;;5113573;28;20073;-71
2023/12/27 06:17:30;;;;;;;28.17;11.95;;;7.00;99.90;;;;;;5113367;28;20384;-71
2023/12/27 06:19:56;;;;;;;25.60;11.63;;;7.00;99.90;;;;;;5099533;28;20111;-71
2023/12/27 06:22:21;;;;;;;29.02;11.73;;;7.00;99.90;;;;;;5093160;28;20377;-71
2023/12/27 06:24:47;;;;;;;27.55;10.93;;;7.00;99.90;;;;;;5092785;28;20092;-71
2023/12/27 06:27:12;;;;;;;34.22;11.23;;;7.00;99.90;;;;;;5092711;28;20066;-71
2023/12/27 06:29:39;;;;;;;24.48;10.73;;;7.00;99.90;;;;;;5092932;28;20032;-71
2023/12/27 06:32:05;;;;;;;23.80;10.43;;;7.00;99.90;;;;;;5107674;28;20124;-71
2023/12/27 06:34:30;;;;;;;25.83;10.52;;;7.00;99.90;;;;;;5111306;28;20385;-71
2023/12/27 06:36:56;;;;;;;29.60;10.48;;;7.00;99.90;;;;;;5113238;28;20028;-71
2023/12/27 06:39:22;;;;;;;31.02;15.45;;;7.10;99.90;;;;;;5113144;28;20362;-71
2023/12/27 06:41:48;;;;;;;26.40;11.40;;;7.10;99.90;;;;;;5112906;28;20020;-71
2023/12/27 06:44:13;;;;;;;27.33;11.90;;;7.10;99.90;;;;;;5111965;28;20112;-71
2023/12/27 06:46:39;;;;;;;25.63;11.30;;;7.00;99.90;;;;;;5112727;28;20453;-71
2023/12/27 06:49:05;;;;;;;23.33;11.43;;;7.00;99.90;;;;;;5110807;28;20038;-71
2023/12/27 06:51:30;;;;;;;29.38;11.82;;;7.10;99.90;;;;;;5094345;28;20024;-71
2023/12/27 06:53:56;;;;;;;31.60;11.50;;;7.10;99.90;;;;;;5112438;28;20053;-70
2023/12/27 06:56:21;;;;;;;26.30;11.60;;;7.00;99.90;;;;;;5111816;28;20023;-71
2023/12/27 06:58:47;;;;;;;27.48;11.25;;;7.10;99.90;;;;;;5112046;28;20126;-71
2023/12/27 07:01:14;;;;;;;26.27;10.65;;;7.10;99.90;;;;;;5113041;28;20089;-71
2023/12/27 07:03:40;;;;;;;26.80;11.25;;;7.10;99.90;;;;;;5099600;28;20040;-71
2023/12/27 07:06:06;;;;;;;26.35;11.63;;;7.10;99.90;;;;;;5109791;28;20110;-70
2023/12/27 07:08:32;;;;;;;25.80;12.15;;;7.10;99.90;;;;;;5112666;28;20065;-71
2023/12/27 07:10:57;;;;;;;24.70;11.25;;;7.10;99.90;;;;;;5112695;28;20107;-71
2023/12/27 07:13:23;;;;;;;25.88;10.98;;;7.10;99.90;;;;;;5113073;28;20487;-70
2023/12/27 07:15:48;;;;;;;27.30;11.20;;;7.10;99.90;;;;;;5105481;28;20032;-71
2023/12/27 07:18:14;;;;;;;24.38;11.05;;;7.10;99.90;;;;;;5115241;28;20027;-71
2023/12/27 07:20:39;;;;;;;25.23;10.45;;;7.10;99.90;;;;;;5117015;28;20038;-71
2023/12/27 07:23:05;;;;;;;30.42;12.07;;;7.10;99.90;;;;;;5116681;28;20114;-71
2023/12/27 07:25:31;;;;;;;28.95;12.13;;;7.10;99.90;;;;;;5116670;28;20067;-70
2023/12/27 07:27:56;;;;;;;27.75;12.35;;;7.10;99.90;;;;;;5115492;28;20426;-70
2023/12/27 07:30:22;;;;;;;27.63;12.20;;;7.00;99.90;;;;;;5116754;28;20076;-71
2023/12/27 07:32:47;;;;;;;28.52;13.07;;;7.00;99.90;;;;;;5116549;28;20024;-70
2023/12/27 07:35:13;;;;;;;27.08;12.82;;;7.00;99.90;;;;;;5116445;28;20024;-71
2023/12/27 07:37:40;;;;;;;30.33;13.38;;;6.90;99.90;;;;;;5114704;28;20034;-71
2023/12/27 07:40:06;;;;;;;27.77;16.13;;;6.90;99.90;;;;;;5099763;28;20111;-70
2023/12/27 07:42:32;;;;;;;30.52;14.70;;;6.90;99.90;;;;;;5106976;28;20089;-70
2023/12/27 07:44:57;;;;;;;29.75;13.63;;;6.90;99.90;;;;;;5116063;28;20085;-70
2023/12/27 07:47:23;;;;;;;30.42;15.05;;;6.80;99.90;;;;;;5115958;28;20460;-71
2023/12/27 07:49:49;;;;;;;30.67;15.52;;;6.90;99.90;;;;;;5116352;28;20102;-71
2023/12/27 07:52:16;;;;;;;57.13;18.67;;;6.80;99.90;;;;;;5114824;28;20084;-71
2023/12/27 07:54:41;;;;;;;52.28;18.73;;;6.80;99.90;;;;;;5114663;28;20031;-71
2023/12/27 07:57:08;;;;;;;32.97;15.98;;;6.80;99.90;;;;;;5115005;28;20035;-71
2023/12/27 07:59:33;;;;;;;39.58;17.15;;;6.80;99.90;;;;;;5116032;28;20058;-71
2023/12/27 08:01:59;;;;;;;33.67;17.00;;;6.90;99.90;;;;;;5116323;28;20473;-70
2023/12/27 08:04:24;;;;;;;64.57;20.08;;;6.90;99.90;;;;;;5111724;28;20065;-71
2023/12/27 08:06:51;;;;;;;31.13;17.88;;;6.80;99.90;;;;;;5105218;28;20119;-71
2023/12/27 08:09:18;;;;;;;35.67;18.30;;;6.80;99.90;;;;;;5110237;28;20035;-71
2023/12/27 08:11:43;;;;;;;34.97;18.00;;;6.80;99.90;;;;;;5108718;28;20139;-70
2023/12/27 08:14:09;;;;;;;36.25;19.70;;;6.80;99.90;;;;;;5112810;28;20067;-71
2023/12/27 08:16:34;;;;;;;34.45;19.13;;;6.80;99.90;;;;;;5113304;28;20028;-70
2023/12/27 08:19:00;;;;;;;34.58;19.58;;;6.90;99.90;;;;;;5096589;28;20028;-71
2023/12/27 08:21:25;;;;;;;35.83;19.75;;;6.90;99.90;;;;;;5113189;28;20076;-71
2023/12/27 08:23:51;;;;;;;37.55;20.35;;;6.80;99.90;;;;;;5115191;28;20039;-71
2023/12/27 08:26:16;;;;;;;34.60;18.67;;;6.90;99.90;;;;;;5115321;28;20064;-72
2023/12/27 08:28:42;;;;;;;35.80;19.92;;;6.90;99.90;;;;;;5109233;28;20028;-71
2023/12/27 08:31:08;;;;;;;34.65;19.90;;;6.90;99.90;;;;;;5113278;28;20139;-71
2023/12/27 08:33:37;;;;;;;61.45;23.00;;;6.90;99.90;;;;;;5115237;28;20070;-71
2023/12/27 08:36:04;;;;;;;55.45;22.92;;;7.00;99.90;;;;;;5114958;28;20027;-71
2023/12/27 08:38:31;;;;;;;34.55;19.50;;;7.00;99.90;;;;;;5105384;28;20039;-71
2023/12/27 08:40:56;;;;;;;30.23;19.33;;;7.00;99.90;;;;;;5115041;28;20472;-71
2023/12/27 08:43:27;;;;;;;55.08;21.27;;;7.00;99.90;;;;;;5115005;28;20038;-71
2023/12/27 08:45:53;;;;;;;37.50;20.50;;;7.00;99.90;;;;;;5114944;28;20146;-71
2023/12/27 08:48:18;;;;;;;31.15;20.15;;;7.00;99.90;;;;;;5111164;28;20122;-71
2023/12/27 08:50:44;;;;;;;35.05;19.55;;;7.10;99.90;;;;;;5112969;28;20027;-71
2023/12/27 08:53:11;;;;;;;32.67;18.40;;;7.10;99.90;;;;;;5112856;28;20034;-71
2023/12/27 08:55:37;;;;;;;38.20;20.30;;;7.10;99.90;;;;;;5102611;28;20050;-71
2023/12/27 08:58:03;;;;;;;29.10;19.25;;;7.10;99.90;;;;;;5109842;28;20468;-71
2023/12/27 09:00:28;;;;;;;30.20;19.60;;;7.10;99.90;;;;;;5112304;28;20099;-71
2023/12/27 09:02:54;;;;;;;34.50;20.92;;;7.20;99.90;;;;;;5111278;28;20435;-71
2023/12/27 09:05:20;;;;;;;45.40;20.85;;;7.20;99.90;;;;;;5110663;28;20046;-71
2023/12/27 09:07:46;;;;;;;32.15;20.67;;;7.20;99.90;;;;;;5113057;28;20020;-71
2023/12/27 09:10:11;;;;;;;29.45;19.90;;;7.30;99.90;;;;;;5112953;28;20055;-71
2023/12/27 09:12:40;;;;;;;40.35;21.23;;;7.30;99.90;;;;;;5112637;28;20024;-71
2023/12/27 09:15:07;;;;;;;30.17;19.35;;;7.30;99.90;;;;;;5114123;28;20423;-71
2023/12/27 09:17:33;;;;;;;29.65;19.70;;;7.30;99.90;;;;;;5114000;28;20015;-71
2023/12/27 09:19:58;;;;;;;31.30;19.67;;;7.40;99.90;;;;;;5111426;28;20028;-71
2023/12/27 09:22:24;;;;;;;31.35;19.38;;;7.40;99.90;;;;;;5112649;28;20019;-71
2023/12/27 09:24:49;;;;;;;37.53;19.80;;;7.40;99.90;;;;;;5110107;28;20039;-71
2023/12/27 09:27:17;;;;;;;25.10;18.63;;;7.50;99.90;;;;;;5099989;28;20027;-71
2023/12/27 09:29:43;;;;;;;27.70;19.30;;;7.50;99.90;;;;;;5103099;28;20032;-71
2023/12/27 09:32:09;;;;;;;31.50;19.77;;;7.60;99.90;;;;;;5108545;28;20047;-71
2023/12/27 09:34:35;;;;;;;42.55;21.23;;;7.70;99.90;;;;;;5113772;28;20091;-71
2023/12/27 09:37:03;;;;;;;32.70;21.88;;;7.70;99.90;;;;;;5114167;28;20020;-70
2023/12/27 09:39:29;;;;;;;32.55;21.75;;;7.70;99.90;;;;;;5106882;28;20065;-71
2023/12/27 09:41:54;;;;;;;31.35;21.50;;;7.70;99.90;;;;;;5106438;28;20039;-71
2023/12/27 09:44:20;;;;;;;118.85;30.35;;;7.70;99.90;;;;;;5112505;28;20031;-71
2023/12/27 09:46:47;;;;;;;30.65;21.67;;;7.80;99.90;;;;;;5112622;28;20027;-71
2023/12/27 09:49:21;;;;;;;29.77;21.98;;;7.80;99.90;;;;;;5107788;28;20064;-71
2023/12/27 09:51:47;;;;;;;31.75;21.92;;;7.90;99.90;;;;;;5107246;28;20055;-71
2023/12/27 09:54:14;;;;;;;41.75;24.30;;;7.90;99.90;;;;;;5109267;28;20686;-71
2023/12/27 09:56:40;;;;;;;35.40;23.88;;;7.90;99.90;;;;;;5106792;27;20032;-71
2023/12/27 09:59:06;;;;;;;33.15;23.25;;;8.00;99.90;;;;;;5106263;27;20028;-71
2023/12/27 10:01:38;;;;;;;36.35;24.33;;;8.00;99.90;;;;;;5099227;28;20052;-71
2023/12/27 10:04:16;;;;;;;43.13;25.02;;;8.00;99.90;;;;;;5109807;28;20035;-71
2023/12/27 10:06:44;;;;;;;38.75;24.77;;;8.10;99.90;;;;;;5102469;28;20027;-71
2023/12/27 10:09:10;;;;;;;36.22;24.92;;;8.10;99.90;;;;;;5113092;28;20031;-71
2023/12/27 10:11:57;;;;;;;36.40;25.92;;;8.20;99.90;;;;;;5107480;28;20032;-72
2023/12/27 10:14:24;;;;;;;40.85;26.38;;;8.30;99.90;;;;;;5111858;28;20441;-71
2023/12/27 10:16:50;;;;;;;74.30;29.73;;;8.30;99.90;;;;;;5112951;28;20024;-71
2023/12/27 10:19:41;;;;;;;39.45;26.58;;;8.30;99.90;;;;;;5112856;28;20383;-72
2023/12/27 10:22:09;;;;;;;39.45;27.17;;;8.30;99.90;;;;;;5107535;28;20477;-71
2023/12/27 10:24:36;;;;;;;41.30;25.90;;;8.40;99.90;;;;;;5107478;28;20133;-72
2023/12/27 10:27:06;;;;;;;39.67;26.27;;;8.40;99.90;;;;;;5092549;28;20503;-71
2023/12/27 10:29:32;;;;;;;41.15;27.52;;;8.50;99.90;;;;;;5112358;28;20146;-72
2023/12/27 10:32:07;;;;;;;44.30;27.85;;;8.50;99.90;;;;;;5112542;28;20027;-71
2023/12/27 10:34:33;;;;;;;42.80;28.42;;;8.50;99.90;;;;;;5111258;28;20023;-71
2023/12/27 10:36:59;;;;;;;42.65;28.10;;;8.50;99.90;;;;;;5111266;28;20039;-71
2023/12/27 10:39:25;;;;;;;42.35;27.08;;;8.60;99.90;;;;;;5107001;28;20091;-71
2023/12/27 10:41:54;;;;;;;41.63;28.30;;;8.60;99.90;;;;;;5111934;28;20489;-71
2023/12/27 10:44:21;;;;;;;44.30;30.35;;;8.70;99.90;;;;;;5110467;28;20040;-71
2023/12/27 10:46:48;;;;;;;42.90;28.85;;;8.70;99.90;;;;;;5112466;28;20103;-71
2023/12/27 10:49:14;;;;;;;80.20;31.90;;;8.80;99.90;;;;;;5105184;28;20381;-71
2023/12/27 10:51:40;;;;;;;42.17;28.67;;;8.80;99.90;;;;;;5102765;28;20020;-71
2023/12/27 10:54:07;;;;;;;43.22;27.70;;;8.80;99.90;;;;;;5111988;28;20027;-71
2023/12/27 10:56:37;;;;;;;41.58;26.10;;;8.80;99.90;;;;;;5104156;28;20117;-72
2023/12/27 10:59:07;;;;;;;43.45;29.05;;;8.80;99.90;;;;;;5111850;28;20027;-71
2023/12/27 11:01:38;;;;;;;37.63;26.73;;;8.90;99.90;;;;;;5112089;28;20048;-71
2023/12/27 11:04:08;;;;;;;40.67;27.85;;;8.90;99.90;;;;;;5104527;28;20082;-71
2023/12/27 11:06:39;;;;;;;43.95;28.77;;;8.90;99.90;;;;;;5112479;28;20020;-71
2023/12/27 11:09:07;;;;;;;43.45;29.67;;;8.90;99.90;;;;;;5112340;28;20128;-71
2023/12/27 11:11:39;;;;;;;45.67;29.23;;;8.90;99.90;;;;;;5112365;28;20024;-71
2023/12/27 11:14:07;;;;;;;63.05;32.50;;;8.90;99.90;;;;;;5107025;28;20055;-71
2023/12/27 11:16:34;;;;;;;43.47;28.92;;;9.00;99.90;;;;;;5112209;28;20028;-71
2023/12/27 11:19:04;;;;;;;46.60;29.90;;;9.00;99.90;;;;;;5112674;28;20420;-71
2023/12/27 11:21:29;;;;;;;46.15;31.63;;;9.00;99.90;;;;;;5112555;28;20461;-71
2023/12/27 11:23:55;;;;;;;48.08;30.50;;;9.00;99.90;;;;;;5101676;28;20127;-71
2023/12/27 11:26:21;;;;;;;46.80;30.23;;;9.10;99.90;;;;;;5111242;28;20030;-71
2023/12/27 11:28:47;;;;;;;48.05;31.42;;;9.10;99.90;;;;;;5112508;28;20028;-71
2023/12/27 11:31:13;;;;;;;47.10;30.95;;;9.10;99.90;;;;;;5112044;28;20073;-71
2023/12/27 11:33:42;;;;;;;45.22;30.17;;;9.10;99.90;;;;;;5111246;28;20024;-71
2023/12/27 11:36:08;;;;;;;44.88;29.95;;;9.10;99.90;;;;;;5112110;28;20131;-71
2023/12/27 11:38:33;;;;;;;44.35;28.92;;;9.10;99.90;;;;;;5107615;28;20032;-72
2023/12/27 11:41:03;;;;;;;45.75;30.25;;;9.10;99.90;;;;;;5111722;28;20023;-71
2023/12/27 11:43:53;;;;;;;50.53;31.38;;;9.10;99.90;;;;;;5111301;28;20038;-72
2023/12/27 11:46:27;;;;;;;48.03;30.95;;;9.20;99.90;;;;;;5100900;28;20361;-71
2023/12/27 11:48:53;;;;;;;42.10;27.88;;;9.20;99.90;;;;;;5103053;28;20027;-71
2023/12/27 11:51:28;;;;;;;49.08;29.27;;;9.20;99.90;;;;;;5111836;28;20040;-71
2023/12/27 11:53:54;;;;;;;44.92;29.13;;;9.20;99.90;;;;;;5111491;28;20042;-71
2023/12/27 11:56:20;;;;;;;43.63;27.85;;;9.30;99.90;;;;;;5111384;28;20023;-72
2023/12/27 11:58:46;;;;;;;43.88;28.35;;;9.30;99.90;;;;;;5103746;28;20118;-71
2023/12/27 12:01:42;;;;;;;45.72;28.38;;;9.30;99.90;;;;;;5103477;28;20055;-71
2023/12/27 12:04:26;;;;;;;40.90;27.50;;;9.40;99.90;;;;;;5099795;28;20040;-71
2023/12/27 12:06:54;;;;;;;40.85;26.27;;;9.40;99.90;;;;;;5109997;28;20036;-71
2023/12/27 12:09:39;;;;;;;38.40;25.48;;;9.50;99.90;;;;;;5107527;28;20485;-71
2023/12/27 12:12:19;;;;;;;38.75;24.85;;;9.50;99.90;;;;;;5113982;28;20106;-72
2023/12/27 12:14:45;;;;;;;44.03;27.20;;;9.50;99.90;;;;;;5112671;28;20024;-71
2023/12/27 12:17:13;;;;;;;38.45;24.90;;;9.50;99.90;;;;;;5112108;28;20044;-71
2023/12/27 12:19:39;;;;;;;33.78;22.67;;;9.50;99.90;;;;;;5113001;28;20024;-72
2023/12/27 12:22:05;;;;;;;35.00;23.33;;;9.50;99.90;;;;;;5109613;28;20427;-71
2023/12/27 12:24:32;;;;;;;38.08;22.92;;;9.60;99.90;;;;;;5112580;28;20061;-71
2023/12/27 12:26:59;;;;;;;31.30;20.35;;;9.60;99.90;;;;;;5114494;28;20024;-71
2023/12/27 12:29:25;;;;;;;32.78;20.00;;;9.70;99.90;;;;;;5111190;28;20077;-71
2023/12/27 12:31:54;;;;;;;32.22;20.67;;;9.70;99.90;;;;;;5109587;28;20032;-71